Time;durP1;ratioP1;P1;durP2;ratioP2;P2;SDS_P1;SDS_P2;PMS_P1;PMS_P2;Temp;Humidity;BMP_temperature;BMP_pressure;BME280_temperature;BME280_humidity;BME280_pressure;Samples;Min_cycle;Max_cycle;Signal;HPM_P1;HPM_P2
2022/03/19 00:02:04;;;;;;;39.90;11.13;;;;;;;3.18;100.00;103591.03;7392677;19;20450;-52
2022/03/19 00:04:36;;;;;;;32.33;8.70;;;;;;;3.17;100.00;103594.34;7393031;19;20400;-50
2022/03/19 00:07:06;;;;;;;23.60;8.80;;;;;;;3.25;100.00;103601.25;7391902;19;20407;-56
2022/03/19 00:09:35;;;;;;;17.10;7.23;;;;;;;3.20;100.00;103607.44;7394088;19;20403;-54
2022/03/19 00:12:06;;;;;;;30.30;9.40;;;;;;;3.25;100.00;103621.66;7392636;19;20770;-52
2022/03/19 00:14:35;;;;;;;29.87;11.03;;;;;;;3.22;100.00;103624.75;7393016;19;20809;-56
2022/03/19 00:17:05;;;;;;;87.23;37.90;;;;;;;3.32;100.00;103619.09;7396429;19;20478;-50
2022/03/19 00:19:38;;;;;;;31.70;14.40;;;;;;;3.26;100.00;103631.13;7392808;19;20435;-54
2022/03/19 00:22:08;;;;;;;62.40;24.70;;;;;;;3.32;100.00;103626.75;7391775;19;20970;-57
2022/03/19 00:24:39;;;;;;;20.63;10.07;;;;;;;3.25;100.00;103631.88;7385326;19;20408;-54
2022/03/19 00:27:08;;;;;;;25.40;10.80;;;;;;;3.23;100.00;103641.00;7392583;19;20474;-55
2022/03/19 00:29:37;;;;;;;29.83;10.40;;;;;;;3.14;100.00;103645.00;7387769;19;20386;-54
2022/03/19 00:32:07;;;;;;;25.80;8.20;;;;;;;3.14;100.00;103634.78;7392512;19;20383;-52
2022/03/19 00:34:39;;;;;;;27.90;10.60;;;;;;;3.12;100.00;103633.69;7389130;19;21029;-53
2022/03/19 00:37:09;;;;;;;74.50;32.63;;;;;;;3.26;100.00;103622.53;7392049;19;20395;-50
2022/03/19 00:39:39;;;;;;;75.53;31.13;;;;;;;3.51;100.00;103595.72;7387329;19;20398;-49
2022/03/19 00:42:08;;;;;;;83.17;34.13;;;;;;;3.55;100.00;103584.19;7394133;19;20937;-52
2022/03/19 00:44:38;;;;;;;45.27;21.03;;;;;;;3.48;100.00;103587.69;7387754;19;20415;-53
2022/03/19 00:47:07;;;;;;;36.87;13.67;;;;;;;3.54;100.00;103588.38;7399650;19;20903;-51
2022/03/19 00:49:40;;;;;;;43.63;17.40;;;;;;;3.51;100.00;103598.25;7395891;19;20396;-59
2022/03/19 00:52:09;;;;;;;30.50;12.43;;;;;;;3.46;100.00;103604.47;7399442;19;20384;-50
2022/03/19 00:54:39;;;;;;;25.13;10.40;;;;;;;3.54;100.00;103601.16;7393034;19;20419;-52
2022/03/19 00:57:08;;;;;;;27.27;8.53;;;;;;;3.37;100.00;103618.00;7401985;19;20407;-49
2022/03/19 00:59:38;;;;;;;24.37;10.73;;;;;;;3.20;100.00;103630.41;7395251;19;20390;-53
2022/03/19 01:02:10;;;;;;;18.00;7.00;;;;;;;3.21;100.00;103651.00;7400158;19;20743;-56
2022/03/19 01:04:42;;;;;;;25.67;8.70;;;;;;;3.20;100.00;103649.19;7395511;19;20391;-50
2022/03/19 01:07:12;;;;;;;18.13;6.90;;;;;;;3.19;100.00;103655.00;7399448;19;20476;-47
2022/03/19 01:09:41;;;;;;;16.07;6.00;;;;;;;3.19;100.00;103674.53;7395739;19;20737;-51
2022/03/19 01:12:12;;;;;;;17.70;6.27;;;;;;;3.07;100.00;103673.94;7398826;19;20387;-53
2022/03/19 01:14:41;;;;;;;15.70;6.87;;;;;;;2.99;100.00;103696.03;7392466;19;20407;-53
2022/03/19 01:17:11;;;;;;;17.13;6.30;;;;;;;3.08;100.00;103697.09;7398778;19;20465;-53
2022/03/19 01:19:58;;;;;;;20.03;8.20;;;;;;;3.22;100.00;103695.28;7394857;19;20378;-56
2022/03/19 01:22:28;;;;;;;23.37;6.37;;;;;;;3.10;100.00;103718.63;7397464;19;20388;-54
2022/03/19 01:25:00;;;;;;;21.87;5.93;;;;;;;3.04;100.00;103712.81;7391129;19;20422;-57
2022/03/19 01:27:29;;;;;;;16.73;7.00;;;;;;;3.03;100.00;103720.25;7395437;19;20367;-54
2022/03/19 01:29:59;;;;;;;17.27;5.50;;;;;;;3.00;100.00;103737.72;7385545;19;20417;-55
2022/03/19 01:32:29;;;;;;;19.50;6.00;;;;;;;2.98;100.00;103737.56;7395540;19;20395;-50
2022/03/19 01:35:01;;;;;;;20.30;6.03;;;;;;;3.00;100.00;103742.84;7389857;19;20402;-52
2022/03/19 01:37:31;;;;;;;18.83;6.00;;;;;;;3.02;100.00;103760.16;7395504;19;20376;-53
2022/03/19 01:40:01;;;;;;;19.90;6.03;;;;;;;3.15;100.00;103749.81;7389680;19;20421;-53
2022/03/19 01:42:32;;;;;;;29.53;5.83;;;;;;;3.08;100.00;103768.53;7393982;19;20479;-49
2022/03/19 01:45:03;;;;;;;22.60;5.73;;;;;;;3.02;100.00;103766.91;7390685;19;20395;-52
2022/03/19 01:47:33;;;;;;;22.00;6.17;;;;;;;3.02;100.00;103767.81;7394907;19;20371;-52
2022/03/19 01:50:07;;;;;;;24.67;6.17;;;;;;;2.93;100.00;103772.69;7390816;19;20404;-50
2022/03/19 01:52:36;;;;;;;19.33;5.90;;;;;;;3.05;100.00;103778.41;7394902;19;20402;-51
2022/03/19 01:55:08;;;;;;;13.20;5.30;;;;;;;2.98;100.00;103775.84;7383448;19;20419;-51
2022/03/19 01:57:39;;;;;;;16.20;5.80;;;;;;;2.86;100.00;103780.34;7395002;19;20394;-50
2022/03/19 02:00:11;;;;;;;17.73;5.77;;;;;;;2.80;100.00;103787.25;7390900;19;20399;-50
2022/03/19 02:02:41;;;;;;;20.23;7.20;;;;;;;2.78;100.00;103776.84;7394566;19;20384;-50
2022/03/19 02:05:18;;;;;;;15.80;6.13;;;;;;;2.81;100.00;103769.59;7391133;19;20421;-50
2022/03/19 02:07:48;;;;;;;18.17;4.97;;;;;;;2.73;100.00;103771.94;7398513;19;20398;-53
2022/03/19 02:10:19;;;;;;;22.97;5.60;;;;;;;2.73;100.00;103774.47;7391527;19;20410;-55
2022/03/19 02:12:51;;;;;;;21.63;5.60;;;;;;;2.74;100.00;103774.66;7396244;19;20404;-50
2022/03/19 02:15:21;;;;;;;25.73;8.07;;;;;;;2.76;100.00;103768.09;7390532;19;20481;-53
2022/03/19 02:17:50;;;;;;;19.03;5.57;;;;;;;2.76;100.00;103768.09;7399839;19;20410;-52
2022/03/19 02:20:23;;;;;;;19.93;5.53;;;;;;;2.77;100.00;103779.25;7390316;19;20411;-52
2022/03/19 02:25:40;;;;;;;15.23;5.13;;;;;;;2.61;100.00;103786.66;7389607;19;20438;-50
2022/03/19 02:28:10;;;;;;;13.90;4.70;;;;;;;2.68;100.00;103779.03;7395208;19;20384;-55
2022/03/19 02:30:40;;;;;;;16.57;5.77;;;;;;;2.65;100.00;103782.09;7391333;19;20418;-47
2022/03/19 02:33:10;;;;;;;29.40;8.70;;;;;;;2.72;100.00;103791.41;7395852;19;20715;-52
2022/03/19 02:35:40;;;;;;;41.00;15.60;;;;;;;2.72;100.00;103790.50;7389705;19;20418;-49
2022/03/19 02:38:12;;;;;;;22.50;5.93;;;;;;;2.54;100.00;103797.72;7395431;19;20390;-49
2022/03/19 02:40:42;;;;;;;21.07;5.20;;;;;;;2.56;100.00;103789.53;7387129;19;20751;-53
2022/03/19 02:43:11;;;;;;;18.40;5.33;;;;;;;2.51;100.00;103793.16;7394870;19;20384;-48
2022/03/19 02:45:41;;;;;;;22.37;4.80;;;;;;;2.54;100.00;103790.06;7388527;19;20445;-50
2022/03/19 02:48:13;;;;;;;20.27;5.70;;;;;;;2.49;100.00;103802.25;7400001;19;20914;-54
2022/03/19 02:50:43;;;;;;;19.87;5.10;;;;;;;2.48;100.00;103804.59;7392722;19;20439;-47
2022/03/19 02:53:15;;;;;;;13.80;4.90;;;;;;;2.40;100.00;103806.19;7396381;19;20387;-48
2022/03/19 02:55:46;;;;;;;18.30;5.93;;;;;;;2.51;100.00;103793.16;7391665;19;20912;-49
2022/03/19 02:58:16;;;;;;;11.87;5.00;;;;;;;2.41;100.00;103797.84;7395385;19;20474;-47
2022/03/19 03:00:45;;;;;;;12.30;4.67;;;;;;;2.36;100.00;103798.91;7390169;19;20952;-51
2022/03/19 03:03:15;;;;;;;19.90;5.50;;;;;;;2.39;100.00;103795.09;7396472;19;20404;-51
2022/03/19 03:05:44;;;;;;;45.10;17.87;;;;;;;2.53;100.00;103784.06;7387253;19;20390;-50
2022/03/19 03:08:16;;;;;;;24.77;8.73;;;;;;;2.62;100.00;103778.28;7397650;19;20406;-54
2022/03/19 03:10:46;;;;;;;17.60;6.93;;;;;;;2.61;100.00;103787.53;7390985;19;20426;-51
2022/03/19 03:13:15;;;;;;;22.23;8.60;;;;;;;2.60;100.00;103801.03;7395887;19;20406;-52
2022/03/19 03:15:45;;;;;;;36.60;9.30;;;;;;;2.62;100.00;103788.47;7390476;19;20397;-49
2022/03/19 03:18:14;;;;;;;24.40;8.50;;;;;;;2.71;100.00;103789.56;7394789;19;20383;-53
2022/03/19 03:20:44;;;;;;;25.27;7.43;;;;;;;2.65;100.00;103793.94;7389163;19;20390;-51
2022/03/19 03:23:14;;;;;;;18.10;6.90;;;;;;;2.65;100.00;103801.56;7394926;19;20487;-50
2022/03/19 03:25:46;;;;;;;18.40;7.90;;;;;;;2.59;100.00;103811.00;7391219;19;20389;-50
2022/03/19 03:28:15;;;;;;;20.30;7.50;;;;;;;2.56;100.00;103809.94;7394397;19;20371;-52
2022/03/19 03:30:45;;;;;;;17.67;5.23;;;;;;;2.47;100.00;103812.97;7386677;19;20407;-50
2022/03/19 03:33:14;;;;;;;16.63;5.03;;;;;;;2.41;100.00;103813.16;7395144;19;20374;-54
2022/03/19 03:35:44;;;;;;;15.00;5.07;;;;;;;2.36;100.00;103816.75;7390741;19;20407;-54
2022/03/19 03:38:14;;;;;;;17.33;6.07;;;;;;;2.30;100.00;103814.34;7394148;19;20367;-54
2022/03/19 03:40:46;;;;;;;17.17;5.07;;;;;;;2.19;100.00;103819.75;7390915;19;20404;-50
2022/03/19 03:43:15;;;;;;;16.37;4.97;;;;;;;2.20;100.00;103812.28;7394548;19;20380;-56
2022/03/19 03:45:45;;;;;;;25.43;8.30;;;;;;;2.20;100.00;103809.72;7390389;19;20406;-51
2022/03/19 03:48:14;;;;;;;16.40;4.60;;;;;;;2.19;100.00;103815.56;7393707;19;20379;-53
2022/03/19 03:50:43;;;;;;;13.03;5.30;;;;;;;2.29;100.00;103803.25;7385247;19;20406;-53
2022/03/19 03:53:13;;;;;;;16.17;6.07;;;;;;;2.29;100.00;103803.25;7394341;19;20395;-51
2022/03/19 03:55:46;;;;;;;15.40;5.43;;;;;;;2.24;100.00;103811.94;7389550;19;20406;-53
2022/03/19 03:58:16;;;;;;;20.10;4.70;;;;;;;2.10;100.00;103812.75;7393566;19;20934;-55
2022/03/19 04:00:46;;;;;;;23.47;5.97;;;;;;;1.97;100.00;103815.41;7388227;19;20429;-54
2022/03/19 04:03:15;;;;;;;20.33;4.07;;;;;;;1.93;100.00;103805.56;7394100;19;20406;-53
2022/03/19 04:05:45;;;;;;;22.70;4.43;;;;;;;1.98;100.00;103801.97;7392046;19;20406;-52
2022/03/19 04:08:14;;;;;;;11.20;3.67;;;;;;;2.00;100.00;103803.06;7393240;19;20379;-51
2022/03/19 04:10:47;;;;;;;13.13;3.63;;;;;;;1.91;100.00;103799.38;7389487;19;20425;-51
2022/03/19 04:13:16;;;;;;;9.17;3.60;;;;;;;1.92;100.00;103797.72;7393764;19;20391;-53
2022/03/19 04:15:46;;;;;;;15.13;3.60;;;;;;;1.85;100.00;103806.22;7388259;19;20430;-54
2022/03/19 04:18:16;;;;;;;14.20;3.87;;;;;;;1.67;100.00;103804.78;7392937;19;20368;-50
2022/03/19 04:20:45;;;;;;;17.43;3.40;;;;;;;1.49;100.00;103804.31;7386631;19;20408;-55
2022/03/19 04:23:14;;;;;;;16.57;3.57;;;;;;;1.52;100.00;103788.47;7393456;19;20946;-52
2022/03/19 04:25:46;;;;;;;13.63;3.73;;;;;;;1.84;100.00;103781.50;7389388;19;20458;-54
2022/03/19 04:28:17;;;;;;;11.70;4.37;;;;;;;1.78;100.00;103789.25;7392596;19;20707;-53
2022/03/19 04:30:47;;;;;;;22.60;4.40;;;;;;;1.61;100.00;103779.50;7389682;19;20402;-52
2022/03/19 04:33:22;;;;;;;9.87;2.97;;;;;;;1.43;100.00;103793.34;7393353;19;20371;-50
2022/03/19 04:38:38;;;;;;;11.60;4.50;;;;;;;1.14;100.00;103778.72;7391694;19;20405;-54
2022/03/19 04:41:10;;;;;;;20.60;5.00;;;;;;;1.26;100.00;103770.81;7389300;19;20397;-50
2022/03/19 04:43:40;;;;;;;13.27;4.50;;;;;;;1.26;100.00;103763.19;7396755;19;20375;-53
2022/03/19 04:46:09;;;;;;;14.90;5.47;;;;;;;1.17;100.00;103747.66;7387784;19;20412;-57
2022/03/19 04:48:39;;;;;;;16.43;3.80;;;;;;;1.11;100.00;103741.78;7392263;19;20422;-52
2022/03/19 04:51:08;;;;;;;15.50;5.87;;;;;;;0.99;100.00;103743.66;7389060;19;20483;-53
2022/03/19 04:53:38;;;;;;;20.53;4.87;;;;;;;1.21;100.00;103737.16;7392871;19;20388;-47
2022/03/19 04:56:10;;;;;;;14.23;4.03;;;;;;;1.44;100.00;103731.56;7386997;19;20435;-53
2022/03/19 04:58:39;;;;;;;18.43;4.77;;;;;;;1.15;100.00;103744.00;7391600;19;20382;-54
2022/03/19 05:01:09;;;;;;;22.43;5.10;;;;;;;1.00;100.00;103741.34;7387325;19;20454;-51
2022/03/19 05:03:39;;;;;;;11.03;4.20;;;;;;;0.98;100.00;103744.38;7392508;19;20414;-52
2022/03/19 05:06:08;;;;;;;14.00;5.00;;;;;;;0.90;100.00;103739.22;7387043;19;20407;-50
2022/03/19 05:08:38;;;;;;;14.80;4.90;;;;;;;0.87;100.00;103728.66;7391712;19;20390;-51
2022/03/19 05:11:13;;;;;;;16.47;5.07;;;;;;;0.90;100.00;103726.53;7384531;19;21576;-48
2022/03/19 05:13:43;;;;;;;48.70;17.77;;;;;;;1.25;100.00;103702.84;7392015;19;20390;-49
2022/03/19 05:16:12;;;;;;;60.60;21.43;;;;;;;1.42;100.00;103688.09;7387678;19;20736;-50
2022/03/19 05:18:42;;;;;;;20.70;6.60;;;;;;;1.41;100.00;103688.81;7391206;19;20470;-50
2022/03/19 05:21:12;;;;;;;16.77;4.80;;;;;;;1.32;100.00;103683.47;7388215;19;20417;-48
2022/03/19 05:23:45;;;;;;;14.53;4.97;;;;;;;1.17;100.00;103691.69;7391875;19;20388;-53
2022/03/19 05:26:22;;;;;;;24.73;4.90;;;;;;;1.11;100.00;103696.00;7385783;19;20390;-55
2022/03/19 05:28:51;;;;;;;15.73;4.60;;;;;;;1.00;100.00;103685.38;7391125;19;20367;-51
2022/03/19 05:31:34;;;;;;;12.88;4.90;;;;;;;1.01;100.00;103693.91;7388557;19;20415;-53
2022/03/19 05:36:46;;;;;;;18.97;4.83;;;;;;;1.08;100.00;103686.38;7394722;19;20201;-52
2022/03/19 05:39:15;;;;;;;19.70;5.17;;;;;;;1.04;100.00;103684.16;7398131;19;20740;-50
2022/03/19 05:41:47;;;;;;;17.83;5.30;;;;;;;1.03;100.00;103682.31;7394572;19;20563;-55
2022/03/19 05:44:17;;;;;;;19.67;5.27;;;;;;;1.24;100.00;103667.94;7398141;19;20406;-50
2022/03/19 05:46:46;;;;;;;15.27;6.32;;;;;;;1.14;100.00;103674.44;7393951;19;20469;-50
2022/03/19 05:49:16;;;;;;;14.00;4.23;;;;;;;1.31;100.00;103671.47;7397876;19;20123;-54
2022/03/19 05:51:46;;;;;;;27.23;5.73;;;;;;;1.23;100.00;103673.75;7394350;19;20420;-52
2022/03/19 05:54:15;;;;;;;11.50;3.83;;;;;;;1.18;100.00;103676.63;7397907;19;20386;-57
2022/03/19 05:56:47;;;;;;;22.83;6.00;;;;;;;1.25;100.00;103667.22;7391616;19;20427;-52
2022/03/19 05:59:19;;;;;;;14.03;4.60;;;;;;;1.26;100.00;103671.59;7397370;19;20702;-50
2022/03/19 06:01:48;;;;;;;13.83;3.83;;;;;;;1.36;100.00;103674.59;7389193;19;20798;-55
2022/03/19 06:04:18;;;;;;;17.00;5.55;;;;;;;1.52;100.00;103671.41;7397238;19;20402;-51
2022/03/19 06:06:48;;;;;;;18.08;5.47;;;;;;;1.46;100.00;103676.66;7394292;19;20190;-54
2022/03/19 06:09:17;;;;;;;23.93;6.03;;;;;;;1.38;100.00;103683.31;7397541;19;20127;-53
2022/03/19 06:11:49;;;;;;;13.93;5.07;;;;;;;1.56;100.00;103677.09;7394139;19;20411;-51
2022/03/19 06:14:19;;;;;;;21.93;6.50;;;;;;;1.80;100.00;103674.88;7397295;19;20473;-54
2022/03/19 06:16:49;;;;;;;14.63;4.83;;;;;;;1.86;100.00;103680.72;7392352;19;20426;-52
2022/03/19 06:19:19;;;;;;;17.63;6.03;;;;;;;1.95;100.00;103691.16;7396970;19;20379;-52
2022/03/19 06:21:49;;;;;;;18.73;6.50;;;;;;;1.85;100.00;103696.75;7391254;19;20406;-54
2022/03/19 06:24:20;;;;;;;26.20;8.37;;;;;;;1.89;100.00;103701.47;7397564;19;20387;-54
2022/03/19 06:26:53;;;;;;;16.83;4.93;;;;;;;2.05;100.00;103698.28;7392466;19;20405;-52
2022/03/19 06:29:22;;;;;;;32.50;7.10;;;;;;;2.10;100.00;103702.31;7396484;19;20371;-52
2022/03/19 06:31:52;;;;;;;18.07;5.03;;;;;;;2.10;100.00;103707.41;7392850;19;20498;-50
2022/03/19 06:34:21;;;;;;;21.37;6.33;;;;;;;2.17;100.00;103704.91;7396474;19;20419;-56
2022/03/19 06:39:33;;;;;;;17.03;6.73;;;;;;;2.25;100.00;103709.28;7396410;19;20916;-51
2022/03/19 06:42:06;;;;;;;24.73;8.97;;;;;;;2.15;100.00;103720.00;7395611;19;20931;-49
2022/03/19 06:44:38;;;;;;;21.33;8.77;;;;;;;2.42;100.00;103719.00;7398127;19;20410;-49
2022/03/19 06:47:08;;;;;;;12.47;4.10;;;;;;;2.45;100.00;103723.56;7395569;19;20393;-50
2022/03/19 06:49:38;;;;;;;20.33;5.53;;;;;;;2.47;100.00;103736.50;7392651;19;20380;-53
2022/03/19 06:52:10;;;;;;;14.00;4.07;;;;;;;2.52;100.00;103736.34;7395512;19;20398;-52
2022/03/19 06:54:39;;;;;;;14.63;3.93;;;;;;;2.70;100.00;103740.25;7391174;19;20411;-47
2022/03/19 06:57:11;;;;;;;13.53;4.27;;;;;;;2.67;100.00;103747.50;7394771;19;20374;-51
2022/03/19 06:59:40;;;;;;;20.63;4.77;;;;;;;2.81;100.00;103754.28;7390545;19;20375;-52
2022/03/19 07:02:10;;;;;;;14.13;4.37;;;;;;;2.93;100.00;103761.59;7395663;19;20388;-53
2022/03/19 07:04:40;;;;;;;16.03;5.17;;;;;;;2.84;100.00;103772.50;7390616;19;20407;-51
2022/03/19 07:07:09;;;;;;;13.40;4.90;;;;;;;2.86;100.00;103782.00;7393278;19;20388;-52
2022/03/19 07:09:39;;;;;;;19.13;4.67;;;;;;;2.86;100.00;103784.56;7391953;19;20792;-49
2022/03/19 07:12:13;;;;;;;12.13;3.93;;;;;;;3.13;100.00;103783.50;7399763;19;20387;-51
2022/03/19 07:14:44;;;;;;;15.90;5.03;;;;;;;3.18;100.00;103790.09;7390267;19;20407;-48
2022/03/19 07:17:13;;;;;;;21.33;5.37;;;;;;;3.16;100.00;103796.63;7395147;19;20388;-48
2022/03/19 07:19:42;;;;;;;17.00;4.60;;;;;;;3.13;100.00;103807.38;7391265;19;20379;-52
2022/03/19 07:22:12;;;;;;;16.17;5.77;;;;;;;3.16;100.00;103812.84;7394816;19;20471;-52
2022/03/19 07:24:43;;;;;;;14.33;3.93;;;;;;;3.32;100.00;103814.69;7388961;19;20411;-51
2022/03/19 07:27:15;;;;;;;22.13;8.00;;;;;;;3.22;100.00;103817.78;7391790;19;20384;-50
2022/03/19 07:29:45;;;;;;;39.93;14.57;;;;;;;3.36;100.00;103824.56;7389755;19;20395;-50
2022/03/19 07:32:14;;;;;;;33.93;10.50;;;;;;;3.46;100.00;103819.84;7394464;19;20383;-50
2022/03/19 07:34:44;;;;;;;13.10;4.00;;;;;;;3.43;100.00;103846.66;7389066;19;20794;-54
2022/03/19 07:37:13;;;;;;;25.03;7.20;;;;;;;3.55;100.00;103835.34;7395329;19;20375;-51
2022/03/19 07:39:43;;;;;;;19.07;5.97;;;;;;;3.52;100.00;103850.28;7390444;19;20390;-50
2022/03/19 07:42:12;;;;;;;23.90;8.50;;;;;;;3.78;100.00;103834.59;7396597;19;20406;-52
2022/03/19 07:44:42;;;;;;;15.50;5.70;;;;;;;4.45;100.00;103852.59;7384997;19;20417;-51
2022/03/19 07:47:11;;;;;;;32.97;13.97;;;;;;;4.80;100.00;103862.53;7392247;19;20376;-53
2022/03/19 07:49:41;;;;;;;31.30;12.50;;;;;;;5.06;100.00;103888.56;7388394;19;20396;-53
2022/03/19 07:52:11;;;;;;;37.60;11.40;;;;;;;5.07;100.00;103897.16;7393874;19;20404;-53
2022/03/19 07:54:40;;;;;;;20.63;8.90;;;;;;;5.58;100.00;103914.81;7390164;19;20419;-51
2022/03/19 07:57:11;;;;;;;14.03;3.17;;;;;;;5.75;100.00;103940.66;7392304;19;20726;-51
2022/03/19 07:59:43;;;;;;;12.80;4.00;;;;;;;5.58;100.00;103951.56;7387265;19;20474;-49
2022/03/19 08:02:12;;;;;;;16.00;5.70;;;;;;;5.22;100.00;103964.53;7393499;19;20379;-50
2022/03/19 08:04:42;;;;;;;18.00;5.70;;;;;;;4.83;100.00;103963.56;7388924;19;20776;-50
2022/03/19 08:07:12;;;;;;;16.30;3.50;;;;;;;4.66;100.00;103950.47;7393112;19;20406;-48
2022/03/19 08:09:42;;;;;;;11.67;3.80;;;;;;;4.62;100.00;103951.75;7388214;19;20363;-46
2022/03/19 08:12:12;;;;;;;19.13;3.60;;;;;;;4.54;100.00;103949.94;7393369;19;20395;-46
2022/03/19 08:14:44;;;;;;;9.00;3.33;;;;;;;4.64;100.00;103939.13;7384690;19;20418;-48
2022/03/19 08:17:14;;;;;;;13.37;4.17;;;;;;;4.62;100.00;103933.88;7394023;19;20411;-52
2022/03/19 08:19:44;;;;;;;15.07;4.40;;;;;;;4.73;100.00;103927.44;7387285;19;20383;-54
2022/03/19 08:22:31;;;;;;;14.37;4.27;;;;;;;4.86;100.00;103922.06;7396441;19;20749;-53
2022/03/19 08:25:01;;;;;;;12.70;4.23;;;;;;;4.96;100.00;103930.09;7388473;19;20750;-48
2022/03/19 08:27:30;;;;;;;7.70;2.70;;;;;;;5.03;100.00;103930.81;7391980;19;20398;-51
2022/03/19 08:30:03;;;;;;;36.10;9.33;;;;;;;5.09;100.00;103944.31;7385108;19;20404;-52
2022/03/19 08:32:34;;;;;;;10.00;3.17;;;;;;;5.16;100.00;103944.28;7393211;19;20399;-48
2022/03/19 08:35:04;;;;;;;10.03;3.07;;;;;;;5.27;100.00;103948.97;7387141;19;20740;-49
2022/03/19 08:37:36;;;;;;;11.93;3.77;;;;;;;5.35;100.00;103959.19;7392469;19;20911;-51
2022/03/19 08:40:16;;;;;;;23.03;7.67;;;;;;;5.38;100.00;103963.00;7383981;19;20843;-55
2022/03/19 08:42:50;;;;;;;10.70;2.87;;;;;;;5.42;100.00;103969.38;7397012;19;20479;-51
2022/03/19 08:45:23;;;;;;;21.10;7.80;;;;;;;5.49;100.00;103976.13;7387123;19;20491;-53
2022/03/19 08:47:52;;;;;;;38.07;13.63;;;;;;;5.51;100.00;103964.41;7390809;19;20396;-55
2022/03/19 08:50:24;;;;;;;33.17;10.70;;;;;;;5.53;100.00;103974.09;7387667;19;20857;-56
2022/03/19 08:52:53;;;;;;;23.60;6.90;;;;;;;5.61;100.00;103980.09;7392231;19;20380;-55
2022/03/19 08:55:23;;;;;;;54.27;16.97;;;;;;;5.73;100.00;103985.69;7388278;19;20410;-51
2022/03/19 08:57:52;;;;;;;18.03;3.40;;;;;;;5.83;100.00;103979.06;7392529;19;20395;-51
2022/03/19 09:00:24;;;;;;;11.53;3.50;;;;;;;5.92;100.00;103978.44;7387660;19;20403;-52
2022/03/19 09:02:55;;;;;;;12.83;3.10;;;;;;;5.96;100.00;103997.66;7392666;19;20380;-53
2022/03/19 09:05:27;;;;;;;10.50;3.10;;;;;;;6.03;100.00;103987.38;7387843;19;20403;-52
2022/03/19 09:07:56;;;;;;;94.07;34.10;;;;;;;6.29;100.00;103983.31;7396384;19;20397;-53
2022/03/19 09:10:26;;;;;;;14.60;4.47;;;;;;;6.29;100.00;103983.31;7394184;19;20421;-48
2022/03/19 09:12:55;;;;;;;20.17;6.60;;;;;;;6.42;100.00;103980.47;7399265;19;20398;-51
2022/03/19 09:15:27;;;;;;;44.43;14.00;;;;;;;6.51;100.00;103996.84;7390784;19;20404;-52
2022/03/19 09:17:57;;;;;;;35.73;12.93;;;;;;;6.69;100.00;103982.59;7397340;19;20383;-49
2022/03/19 09:20:27;;;;;;;41.97;14.73;;;;;;;6.65;100.00;103989.78;7395989;19;20425;-49
2022/03/19 09:22:56;;;;;;;31.80;11.10;;;;;;;6.73;100.00;103999.22;7397391;19;20404;-48
2022/03/19 09:25:26;;;;;;;12.10;4.10;;;;;;;6.71;100.00;103999.06;7392586;19;20420;-52
2022/03/19 09:27:55;;;;;;;12.80;4.43;;;;;;;6.66;100.00;104002.78;7395954;19;20389;-50
2022/03/19 09:30:27;;;;;;;9.43;2.77;;;;;;;6.84;100.00;104003.88;7395142;19;20424;-50
2022/03/19 09:32:57;;;;;;;14.50;3.90;;;;;;;6.91;100.00;104007.13;7398917;19;20453;-49
2022/03/19 09:35:45;;;;;;;14.10;3.10;;;;;;;6.98;100.00;104009.59;7393114;19;20411;-53
2022/03/19 09:38:15;;;;;;;8.80;2.70;;;;;;;7.23;100.00;104015.72;7398050;19;20378;-53
2022/03/19 09:40:46;;;;;;;12.03;3.60;;;;;;;7.57;100.00;104021.00;7395174;19;20414;-51
2022/03/19 09:43:15;;;;;;;7.33;2.30;;;;;;;7.92;100.00;104022.91;7398387;19;20383;-49
2022/03/19 09:45:47;;;;;;;11.83;3.03;;;;;;;8.04;100.00;104030.97;7393585;19;20402;-49
2022/03/19 09:48:17;;;;;;;10.90;4.20;;;;;;;7.97;100.00;104032.00;7394756;19;20406;-49
2022/03/19 09:50:46;;;;;;;14.83;3.77;;;;;;;8.13;100.00;104026.81;7394638;19;20414;-47
2022/03/19 09:53:17;;;;;;;13.20;3.73;;;;;;;8.54;100.00;104030.97;7397424;19;20388;-48
2022/03/19 09:55:47;;;;;;;10.47;3.60;;;;;;;8.83;100.00;104033.03;7387605;19;20417;-48
2022/03/19 09:58:16;;;;;;;7.03;2.70;;;;;;;8.99;100.00;104054.44;7397188;19;20383;-52
2022/03/19 10:00:48;;;;;;;10.30;2.67;;;;;;;8.90;100.00;104061.22;7392992;19;20415;-52
2022/03/19 10:03:22;;;;;;;11.17;4.30;;;;;;;8.76;100.00;104068.44;7397777;19;20451;-48
2022/03/19 10:08:40;;;;;;;26.20;9.10;;;;;;;8.93;100.00;104069.28;7395534;19;20745;-48
2022/03/19 10:11:11;;;;;;;17.13;6.33;;;;;;;8.70;100.00;104078.13;7392042;19;20765;-48
2022/03/19 10:13:44;;;;;;;19.93;9.50;;;;;;;8.59;100.00;104073.53;7398001;19;20402;-49
2022/03/19 10:16:22;;;;;;;46.80;22.23;;;;;;;8.76;100.00;104062.38;7391178;19;20423;-49
2022/03/19 10:18:56;;;;;;;17.37;6.20;;;;;;;8.84;100.00;104065.75;7396938;19;20407;-48
2022/03/19 10:21:26;;;;;;;14.03;4.53;;;;;;;9.01;100.00;104058.06;7388725;19;20410;-49
2022/03/19 10:23:59;;;;;;;21.83;10.00;;;;;;;9.05;100.00;104052.47;7396845;19;20391;-47
2022/03/19 10:26:31;;;;;;;13.10;6.47;;;;;;;8.85;100.00;104057.25;7392561;19;20422;-47
2022/03/19 10:29:02;;;;;;;11.40;3.00;;;;;;;8.91;100.00;104055.31;7393897;19;20394;-48
2022/03/19 10:31:35;;;;;;;11.07;3.53;;;;;;;8.98;100.00;104060.31;7386567;19;20422;-51
2022/03/19 10:34:06;;;;;;;7.30;2.53;;;;;;;9.20;100.00;104054.78;7396431;19;20390;-53
2022/03/19 10:36:37;;;;;;;17.20;7.97;;;;;;;9.52;100.00;104063.88;7392201;19;20785;-51
2022/03/19 10:39:08;;;;;;;15.77;8.13;;;;;;;9.40;100.00;104053.25;7395829;19;20390;-50
2022/03/19 10:41:38;;;;;;;13.20;5.10;;;;;;;9.19;100.00;104055.53;7394965;19;20457;-54
2022/03/19 10:44:16;;;;;;;28.27;13.00;;;;;;;9.47;100.00;104047.06;7396210;19;20503;-52
2022/03/19 10:46:50;;;;;;;13.80;3.70;;;;;;;9.25;100.00;104050.06;7392032;19;20745;-50
2022/03/19 10:49:21;;;;;;;5.23;2.53;;;;;;;9.05;100.00;104051.56;7395335;19;20399;-51
2022/03/19 10:51:52;;;;;;;10.53;3.70;;;;;;;9.22;100.00;104054.94;7392907;19;20930;-48
2022/03/19 10:54:22;;;;;;;15.57;4.27;;;;;;;9.25;100.00;104053.56;7397150;19;20415;-48
2022/03/19 10:56:54;;;;;;;8.43;2.50;;;;;;;8.99;100.00;104051.88;7390545;19;20844;-50
2022/03/19 10:59:24;;;;;;;7.60;2.97;;;;;;;8.66;100.00;104051.91;7394314;19;20394;-53
2022/03/19 11:01:57;;;;;;;9.60;2.67;;;;;;;8.68;100.00;104055.53;7396545;19;20450;-50
2022/03/19 11:04:27;;;;;;;6.47;1.93;;;;;;;8.79;100.00;104052.41;7394987;19;20471;-54
2022/03/19 11:06:58;;;;;;;10.80;2.17;;;;;;;8.59;100.00;104042.63;7391157;19;20411;-55
2022/03/19 11:09:29;;;;;;;7.40;3.00;;;;;;;8.81;100.00;104039.69;7394691;19;20525;-50
2022/03/19 11:12:00;;;;;;;6.33;3.27;;;;;;;8.76;100.00;104029.84;7393340;19;20771;-52
2022/03/19 11:14:31;;;;;;;7.83;2.90;;;;;;;8.93;100.00;104019.41;7395241;19;20387;-51
2022/03/19 11:17:27;;;;;;;6.57;2.27;;;;;;;8.83;100.00;104022.72;7394872;19;20411;-53
2022/03/19 11:19:59;;;;;;;12.87;5.60;;;;;;;8.92;100.00;104023.66;7385692;19;20970;-52
2022/03/19 11:22:29;;;;;;;10.80;4.47;;;;;;;8.91;100.00;104021.81;7395301;19;20391;-47
2022/03/19 11:25:04;;;;;;;10.33;3.60;;;;;;;9.11;100.00;104020.34;7387482;19;20419;-53
2022/03/19 11:27:37;;;;;;;7.83;3.20;;;;;;;9.05;100.00;104010.34;7394285;19;20398;-54
2022/03/19 11:30:08;;;;;;;10.33;4.70;;;;;;;8.90;100.00;104009.72;7388203;19;20408;-47
2022/03/19 11:32:40;;;;;;;12.97;5.10;;;;;;;8.82;100.00;104002.88;7394917;19;20471;-51
2022/03/19 11:35:11;;;;;;;4.50;2.00;;;;;;;8.80;100.00;103999.22;7386768;19;20401;-50
2022/03/19 11:38:00;;;;;;;11.10;3.00;;;;;;;8.64;100.00;103997.69;7394993;19;20819;-52
2022/03/19 11:40:32;;;;;;;10.40;3.00;;;;;;;8.60;100.00;103998.13;7390045;19;20436;-48
2022/03/19 11:43:19;;;;;;;14.87;5.27;;;;;;;8.80;100.00;103988.94;7394366;19;20803;-51
2022/03/19 11:45:57;;;;;;;7.30;2.77;;;;;;;8.72;100.00;103994.22;7387023;19;20427;-51
2022/03/19 11:48:48;;;;;;;10.83;2.33;;;;;;;8.76;100.00;103993.78;7392803;19;20401;-51